Time;durP1;ratioP1;P1;durP2;ratioP2;P2;SDS_P1;SDS_P2;PMS_P1;PMS_P2;Temp;Humidity;BMP_temperature;BMP_pressure;BME280_temperature;BME280_humidity;BME280_pressure;Samples;Min_cycle;Max_cycle;Signal;HPM_P1;HPM_P2
2021/04/27 00:00:29;;;;;;;6.35;3.88;;;;;;;;;;5093848;28;20159;-68
2021/04/27 00:02:56;;;;;;;8.38;4.13;;;;;;;;;;5094116;28;20052;-68
2021/04/27 00:05:28;;;;;;;8.38;3.58;;;;;;;;;;5092431;28;20052;-69
2021/04/27 00:07:56;;;;;;;8.15;4.00;;;;;;;;;;5091927;28;20544;-68
2021/04/27 00:10:24;;;;;;;7.90;3.80;;;;;;;;;;5093009;28;20136;-68
2021/04/27 00:12:52;;;;;;;7.97;3.80;;;;;;;;;;5094134;28;20446;-68
2021/04/27 00:15:21;;;;;;;10.00;4.57;;;;;;;;;;5087651;28;20289;-68
2021/04/27 00:17:48;;;;;;;6.10;4.05;;;;;;;;;;5091711;28;20079;-69
2021/04/27 00:20:16;;;;;;;7.75;4.25;;;;;;;;;;5083108;28;20044;-68
2021/04/27 00:22:44;;;;;;;6.65;3.88;;;;;;;;;;5093202;28;20117;-69
2021/04/27 00:25:12;;;;;;;6.85;3.97;;;;;;;;;;5092758;28;20068;-68
2021/04/27 00:27:40;;;;;;;10.02;4.32;;;;;;;;;;5092909;28;20087;-68
2021/04/27 00:30:08;;;;;;;11.80;4.28;;;;;;;;;;5092832;28;20123;-68
2021/04/27 00:32:36;;;;;;;8.13;4.05;;;;;;;;;;5093351;28;20044;-68
2021/04/27 00:35:03;;;;;;;12.77;4.35;;;;;;;;;;5092949;28;20117;-70
2021/04/27 00:37:31;;;;;;;8.73;4.30;;;;;;;;;;5090695;28;20131;-68
2021/04/27 00:39:58;;;;;;;10.32;4.45;;;;;;;;;;5093627;28;20062;-68
2021/04/27 00:42:29;;;;;;;7.30;3.83;;;;;;;;;;5093785;28;20082;-69
2021/04/27 00:44:58;;;;;;;6.47;3.78;;;;;;;;;;5083392;28;20136;-68
2021/04/27 00:47:25;;;;;;;6.78;4.22;;;;;;;;;;5091100;28;20484;-69
2021/04/27 00:49:54;;;;;;;8.13;3.90;;;;;;;;;;5092240;28;20058;-69
2021/04/27 00:52:23;;;;;;;9.15;4.22;;;;;;;;;;5091986;28;20039;-69
2021/04/27 00:54:51;;;;;;;10.77;4.13;;;;;;;;;;5091555;28;20135;-68
2021/04/27 00:57:19;;;;;;;7.00;4.20;;;;;;;;;;5092055;28;20048;-68
2021/04/27 00:59:46;;;;;;;6.88;4.10;;;;;;;;;;5092687;28;20558;-68
2021/04/27 01:02:14;;;;;;;7.00;4.03;;;;;;;;;;5089429;28;20044;-68
2021/04/27 01:04:41;;;;;;;7.20;4.10;;;;;;;;;;5096152;22;20061;-65
2021/04/27 01:07:11;;;;;;;7.60;3.78;;;;;;;;;;5080491;28;20437;-66
2021/04/27 01:09:44;;;;;;;7.05;4.28;;;;;;;;;;5079832;28;20048;-66
2021/04/27 01:12:26;;;;;;;7.82;4.30;;;;;;;;;;5080308;28;20124;-66
2021/04/27 01:15:15;;;;;;;6.07;4.03;;;;;;;;;;5058331;28;20041;-67
2021/04/27 01:17:52;;;;;;;5.38;3.67;;;;;;;;;;5078918;28;20467;-66
2021/04/27 01:20:25;;;;;;;11.77;5.15;;;;;;;;;;5079348;28;20052;-66
2021/04/27 01:23:19;;;;;;;7.05;4.32;;;;;;;;;;5078542;28;20055;-67
2021/04/27 01:25:56;;;;;;;8.63;4.13;;;;;;;;;;5076950;28;20049;-66
2021/04/27 01:28:27;;;;;;;9.30;4.78;;;;;;;;;;5056260;28;20085;-65
2021/04/27 01:30:54;;;;;;;9.00;4.10;;;;;;;;;;5067567;28;20052;-65
2021/04/27 01:33:23;;;;;;;12.90;5.32;;;;;;;;;;5076448;28;20056;-65
2021/04/27 01:35:51;;;;;;;11.25;4.70;;;;;;;;;;5076094;28;20531;-65
2021/04/27 01:38:20;;;;;;;7.68;4.15;;;;;;;;;;5064102;28;20053;-66
2021/04/27 01:40:52;;;;;;;11.45;5.03;;;;;;;;;;5073891;28;20422;-66
2021/04/27 01:43:21;;;;;;;8.27;4.80;;;;;;;;;;5079429;28;20483;-66
2021/04/27 01:45:57;;;;;;;9.27;5.00;;;;;;;;;;5074733;28;20052;-66
2021/04/27 01:48:25;;;;;;;9.30;4.90;;;;;;;;;;5074023;28;20488;-66
2021/04/27 01:50:54;;;;;;;12.02;5.20;;;;;;;;;;5075591;28;20052;-66
2021/04/27 01:53:22;;;;;;;10.60;6.05;;;;;;;;;;5076588;28;20044;-66
2021/04/27 01:55:50;;;;;;;10.30;5.45;;;;;;;;;;5073954;28;20489;-66
2021/04/27 01:58:18;;;;;;;13.63;5.80;;;;;;;;;;5074937;28;20045;-66
2021/04/27 02:00:45;;;;;;;9.05;5.95;;;;;;;;;;5072451;28;20049;-66
2021/04/27 02:03:14;;;;;;;9.00;5.05;;;;;;;;;;5075096;28;20522;-66
2021/04/27 02:05:41;;;;;;;11.85;5.95;;;;;;;;;;5075426;28;20048;-66
2021/04/27 02:08:08;;;;;;;11.20;5.78;;;;;;;;;;5073256;28;20044;-66
2021/04/27 02:10:36;;;;;;;8.93;5.40;;;;;;;;;;5074991;28;20048;-66
2021/04/27 02:13:05;;;;;;;10.50;5.38;;;;;;;;;;5075071;28;20055;-66
2021/04/27 02:15:33;;;;;;;11.85;5.72;;;;;;;;;;5074348;28;20068;-66
2021/04/27 02:18:03;;;;;;;9.40;5.40;;;;;;;;;;5069995;28;20047;-66
2021/04/27 02:20:32;;;;;;;13.10;5.35;;;;;;;;;;5072447;28;20480;-66
2021/04/27 02:23:02;;;;;;;12.18;5.70;;;;;;;;;;5074485;28;20422;-66
2021/04/27 02:25:29;;;;;;;14.80;5.70;;;;;;;;;;5072488;28;20116;-66
2021/04/27 02:28:01;;;;;;;11.93;5.72;;;;;;;;;;5073681;28;20052;-66
2021/04/27 02:30:29;;;;;;;13.52;5.90;;;;;;;;;;5072231;28;20100;-66
2021/04/27 02:32:56;;;;;;;11.82;5.82;;;;;;;;;;5073117;28;20110;-66
2021/04/27 02:35:23;;;;;;;9.00;5.45;;;;;;;;;;5073332;28;20110;-66
2021/04/27 02:37:52;;;;;;;11.32;5.55;;;;;;;;;;5073572;28;20049;-66
2021/04/27 02:40:25;;;;;;;10.00;6.10;;;;;;;;;;5073027;28;20118;-66
2021/04/27 02:42:55;;;;;;;9.60;5.97;;;;;;;;;;5062145;28;20059;-66
2021/04/27 02:45:31;;;;;;;13.38;6.25;;;;;;;;;;5075932;28;20052;-65
2021/04/27 02:48:10;;;;;;;11.50;6.35;;;;;;;;;;5069462;28;20092;-66
2021/04/27 02:50:42;;;;;;;12.45;5.80;;;;;;;;;;5075202;28;20827;-65
2021/04/27 02:53:15;;;;;;;12.48;5.90;;;;;;;;;;5072352;28;20049;-65
2021/04/27 02:55:44;;;;;;;9.50;5.70;;;;;;;;;;5073851;28;20060;-66
2021/04/27 02:58:12;;;;;;;13.20;6.35;;;;;;;;;;5071485;28;20044;-66
2021/04/27 03:00:40;;;;;;;12.23;6.50;;;;;;;;;;5071982;28;20143;-66
2021/04/27 03:03:08;;;;;;;14.75;7.25;;;;;;;;;;5072101;28;20455;-66
2021/04/27 03:05:35;;;;;;;12.75;6.03;;;;;;;;;;5073669;28;20075;-66
2021/04/27 03:08:08;;;;;;;11.30;5.68;;;;;;;;;;5071853;28;20037;-66
2021/04/27 03:10:36;;;;;;;12.25;5.75;;;;;;;;;;5073460;28;20075;-66
2021/04/27 03:13:03;;;;;;;14.20;5.88;;;;;;;;;;5070538;28;20052;-66
2021/04/27 03:15:31;;;;;;;10.77;6.00;;;;;;;;;;5073098;28;20303;-65
2021/04/27 03:17:58;;;;;;;11.27;5.53;;;;;;;;;;5067988;28;20044;-66
2021/04/27 03:20:26;;;;;;;13.00;6.63;;;;;;;;;;5071643;28;20106;-66
2021/04/27 03:22:54;;;;;;;12.70;5.90;;;;;;;;;;5070656;28;20079;-66
2021/04/27 03:25:21;;;;;;;11.38;6.32;;;;;;;;;;5071655;28;20391;-66
2021/04/27 03:27:50;;;;;;;11.77;5.85;;;;;;;;;;5070475;28;20048;-66
2021/04/27 03:30:17;;;;;;;12.15;5.93;;;;;;;;;;5072009;28;20044;-66
2021/04/27 03:32:45;;;;;;;9.18;5.72;;;;;;;;;;5072730;28;20059;-66
2021/04/27 03:35:13;;;;;;;14.55;5.70;;;;;;;;;;5072664;28;20519;-66
2021/04/27 03:37:41;;;;;;;10.63;6.20;;;;;;;;;;5070930;28;20095;-65
2021/04/27 03:40:11;;;;;;;12.10;6.45;;;;;;;;;;5073353;28;20052;-65
2021/04/27 03:42:39;;;;;;;12.68;5.47;;;;;;;;;;5073114;28;20052;-66
2021/04/27 03:45:11;;;;;;;12.77;6.05;;;;;;;;;;5074093;28;20048;-66
2021/04/27 03:47:38;;;;;;;13.25;6.07;;;;;;;;;;5072632;28;20099;-65
2021/04/27 03:50:07;;;;;;;10.80;5.78;;;;;;;;;;5055841;28;20508;-66
2021/04/27 03:52:40;;;;;;;11.38;5.95;;;;;;;;;;5061597;28;20041;-66
2021/04/27 03:55:25;;;;;;;8.57;5.38;;;;;;;;;;5076271;28;20174;-66
2021/04/27 03:58:11;;;;;;;10.80;5.57;;;;;;;;;;5071618;28;20470;-65
2021/04/27 04:00:40;;;;;;;11.13;5.85;;;;;;;;;;5072259;28;20058;-66
2021/04/27 04:03:07;;;;;;;11.02;5.25;;;;;;;;;;5071741;28;20506;-66
2021/04/27 04:05:35;;;;;;;11.57;5.82;;;;;;;;;;5072244;28;20052;-66
2021/04/27 04:08:02;;;;;;;11.38;5.28;;;;;;;;;;5071030;28;20106;-66
2021/04/27 04:10:30;;;;;;;8.73;5.30;;;;;;;;;;5071411;28;20087;-66
2021/04/27 04:12:57;;;;;;;8.77;4.88;;;;;;;;;;5072169;28;20040;-66
2021/04/27 04:15:25;;;;;;;9.43;5.15;;;;;;;;;;5071843;28;20059;-65
2021/04/27 04:17:53;;;;;;;8.23;5.15;;;;;;;;;;5072344;28;20056;-65
2021/04/27 04:20:22;;;;;;;9.82;5.47;;;;;;;;;;5066125;28;20381;-66
2021/04/27 04:22:50;;;;;;;10.57;5.50;;;;;;;;;;5071242;28;20052;-66
2021/04/27 04:25:18;;;;;;;11.45;5.15;;;;;;;;;;5073085;28;20045;-65
2021/04/27 04:27:46;;;;;;;12.63;5.70;;;;;;;;;;5074002;28;20395;-65
2021/04/27 04:30:15;;;;;;;9.15;5.38;;;;;;;;;;5075330;28;20051;-65
2021/04/27 04:32:42;;;;;;;8.18;4.93;;;;;;;;;;5075330;28;20048;-66
2021/04/27 04:35:12;;;;;;;11.60;5.43;;;;;;;;;;5073526;28;20486;-65
2021/04/27 04:37:40;;;;;;;10.10;5.63;;;;;;;;;;5073583;28;20044;-65
2021/04/27 04:40:09;;;;;;;10.38;5.50;;;;;;;;;;5076960;28;20087;-65
2021/04/27 04:42:36;;;;;;;10.57;5.82;;;;;;;;;;5074886;28;20079;-65
2021/04/27 04:45:04;;;;;;;11.90;6.00;;;;;;;;;;5076072;28;20044;-65
2021/04/27 04:47:33;;;;;;;10.15;5.60;;;;;;;;;;5072813;28;20063;-65
2021/04/27 04:50:01;;;;;;;12.07;5.78;;;;;;;;;;5072413;28;20044;-65
2021/04/27 04:52:30;;;;;;;13.80;5.88;;;;;;;;;;5074065;28;20048;-65
2021/04/27 04:54:58;;;;;;;11.30;5.60;;;;;;;;;;5073733;28;20037;-65
2021/04/27 04:57:26;;;;;;;14.30;5.60;;;;;;;;;;5073118;28;20052;-66
2021/04/27 04:59:53;;;;;;;12.63;5.38;;;;;;;;;;5074177;28;20067;-65
2021/04/27 05:02:20;;;;;;;11.25;5.50;;;;;;;;;;5073495;28;20048;-66
2021/04/27 05:04:48;;;;;;;9.50;5.60;;;;;;;;;;5068075;28;20053;-65
2021/04/27 05:07:22;;;;;;;13.73;5.70;;;;;;;;;;5075130;28;20499;-65
2021/04/27 05:09:51;;;;;;;10.15;5.45;;;;;;;;;;5075208;28;20076;-65
2021/04/27 05:12:18;;;;;;;9.82;5.43;;;;;;;;;;5072865;28;20037;-66
2021/04/27 05:14:46;;;;;;;10.85;5.70;;;;;;;;;;5074696;28;20110;-65
2021/04/27 05:17:14;;;;;;;11.15;5.85;;;;;;;;;;5071846;28;20523;-65
2021/04/27 05:19:43;;;;;;;11.27;6.35;;;;;;;;;;5070438;28;20052;-65
2021/04/27 05:22:10;;;;;;;9.70;5.53;;;;;;;;;;5067712;28;20090;-65
2021/04/27 05:24:38;;;;;;;11.07;5.80;;;;;;;;;;5069732;28;20052;-65
2021/04/27 05:27:08;;;;;;;8.50;5.28;;;;;;;;;;5070538;28;20040;-65
2021/04/27 05:29:36;;;;;;;11.88;5.65;;;;;;;;;;5071144;28;20079;-65
2021/04/27 05:32:04;;;;;;;11.82;6.07;;;;;;;;;;5071417;28;20045;-65
2021/04/27 05:34:32;;;;;;;12.73;6.88;;;;;;;;;;5065711;28;20048;-64
2021/04/27 05:37:04;;;;;;;9.82;5.90;;;;;;;;;;5072773;28;20100;-65
2021/04/27 05:39:35;;;;;;;9.40;5.95;;;;;;;;;;5067608;28;20059;-66
2021/04/27 05:42:03;;;;;;;10.45;6.25;;;;;;;;;;5073192;28;20048;-65
2021/04/27 05:44:32;;;;;;;10.70;6.22;;;;;;;;;;5055639;28;20053;-66
2021/04/27 05:47:00;;;;;;;11.93;5.97;;;;;;;;;;5054837;28;20053;-66
2021/04/27 05:49:28;;;;;;;16.17;6.72;;;;;;;;;;5057129;28;20053;-66
2021/04/27 05:51:57;;;;;;;11.65;5.93;;;;;;;;;;5056248;28;20044;-66
2021/04/27 05:54:26;;;;;;;11.75;5.93;;;;;;;;;;5073498;28;20075;-66
2021/04/27 05:56:55;;;;;;;10.50;5.72;;;;;;;;;;5063633;28;20048;-66
2021/04/27 05:59:29;;;;;;;11.10;5.95;;;;;;;;;;5079947;28;20063;-66
2021/04/27 06:02:03;;;;;;;13.13;5.80;;;;;;;;;;5079440;28;20105;-66
2021/04/27 06:04:39;;;;;;;10.40;6.20;;;;;;;;;;5088505;28;20105;-66
2021/04/27 06:07:13;;;;;;;12.95;6.78;;;;;;;;;;5078807;28;20044;-66
2021/04/27 06:09:42;;;;;;;11.30;6.47;;;;;;;;;;5077084;28;20529;-66
2021/04/27 06:12:14;;;;;;;10.73;6.30;;;;;;;;;;5071730;28;20036;-65
2021/04/27 06:14:48;;;;;;;17.50;6.88;;;;;;;;;;5077684;28;20127;-66
2021/04/27 06:17:20;;;;;;;12.63;6.30;;;;;;;;;;5069781;28;20451;-66
2021/04/27 06:19:49;;;;;;;12.80;6.45;;;;;;;;;;5067456;28;20056;-65
2021/04/27 06:22:17;;;;;;;10.10;6.32;;;;;;;;;;5067172;28;20071;-67
2021/04/27 06:24:46;;;;;;;13.00;6.18;;;;;;;;;;5069058;28;20142;-66
2021/04/27 06:27:19;;;;;;;11.77;6.47;;;;;;;;;;5069392;28;20522;-67
2021/04/27 06:29:48;;;;;;;15.02;6.45;;;;;;;;;;5069525;28;20467;-66
2021/04/27 06:32:16;;;;;;;10.93;5.85;;;;;;;;;;5067977;28;20063;-66
2021/04/27 06:34:44;;;;;;;10.95;6.43;;;;;;;;;;5070060;28;20114;-66
2021/04/27 06:37:12;;;;;;;13.55;6.30;;;;;;;;;;5063126;28;20052;-66
2021/04/27 06:39:40;;;;;;;10.05;7.65;;;;;;;;;;5069344;28;21371;-68
2021/04/27 06:42:09;;;;;;;10.77;6.78;;;;;;;;;;5069105;28;20053;-67
2021/04/27 06:44:38;;;;;;;12.98;6.38;;;;;;;;;;5070351;28;20092;-66
2021/04/27 06:47:06;;;;;;;10.85;6.63;;;;;;;;;;5069306;28;20126;-66
2021/04/27 06:49:34;;;;;;;13.05;7.32;;;;;;;;;;5067968;28;20044;-67
2021/04/27 06:52:03;;;;;;;10.38;6.13;;;;;;;;;;5067784;28;20048;-66
2021/04/27 06:54:31;;;;;;;12.43;6.57;;;;;;;;;;5068324;28;20055;-66
2021/04/27 06:56:59;;;;;;;11.52;6.55;;;;;;;;;;5069852;28;20041;-66
2021/04/27 06:59:39;;;;;;;11.18;6.78;;;;;;;;;;5053131;28;20095;-66
2021/04/27 07:02:07;;;;;;;15.60;7.15;;;;;;;;;;5070566;28;20079;-66
2021/04/27 07:04:40;;;;;;;18.02;6.90;;;;;;;;;;5071480;28;20110;-66
2021/04/27 07:07:09;;;;;;;12.73;6.70;;;;;;;;;;5066133;28;20123;-66
2021/04/27 07:09:38;;;;;;;10.80;6.60;;;;;;;;;;5070026;28;20454;-66
2021/04/27 07:12:07;;;;;;;12.23;7.00;;;;;;;;;;5067616;28;20048;-66
2021/04/27 07:14:35;;;;;;;14.93;7.13;;;;;;;;;;5074680;28;20131;-66
2021/04/27 07:17:02;;;;;;;15.32;6.63;;;;;;;;;;5071635;28;20131;-66
2021/04/27 07:19:30;;;;;;;16.83;7.18;;;;;;;;;;5066796;28;20106;-66
2021/04/27 07:21:59;;;;;;;11.88;6.35;;;;;;;;;;5067593;28;20110;-67
2021/04/27 07:24:28;;;;;;;9.93;6.47;;;;;;;;;;5057914;28;20040;-66
2021/04/27 07:26:56;;;;;;;15.73;7.13;;;;;;;;;;5069166;28;20045;-66
2021/04/27 07:29:24;;;;;;;13.55;7.03;;;;;;;;;;5064223;28;20060;-67
2021/04/27 07:31:52;;;;;;;13.85;7.35;;;;;;;;;;5068908;28;20098;-65
2021/04/27 07:34:21;;;;;;;12.65;6.93;;;;;;;;;;5066265;28;20068;-66
2021/04/27 07:36:49;;;;;;;12.82;7.32;;;;;;;;;;5067533;28;20057;-65
2021/04/27 07:39:17;;;;;;;10.65;6.82;;;;;;;;;;5068707;28;20047;-68
2021/04/27 07:41:46;;;;;;;11.60;7.03;;;;;;;;;;5068865;28;20072;-67
2021/04/27 07:44:16;;;;;;;12.68;6.43;;;;;;;;;;5068498;28;20048;-66
2021/04/27 07:46:44;;;;;;;10.45;6.68;;;;;;;;;;5067105;28;20072;-67
2021/04/27 07:49:12;;;;;;;10.10;6.38;;;;;;;;;;5070465;28;20052;-66
2021/04/27 07:51:41;;;;;;;17.63;7.80;;;;;;;;;;5070548;28;20040;-66
2021/04/27 07:54:10;;;;;;;11.65;6.55;;;;;;;;;;5070495;28;20122;-66
2021/04/27 07:56:38;;;;;;;13.68;6.40;;;;;;;;;;5069421;28;20090;-66
2021/04/27 07:59:07;;;;;;;11.93;6.60;;;;;;;;;;5071146;28;20049;-66
2021/04/27 08:01:37;;;;;;;12.32;6.47;;;;;;;;;;5066536;28;20492;-62
2021/04/27 08:04:06;;;;;;;13.38;6.95;;;;;;;;;;5070267;28;20488;-62
2021/04/27 08:06:34;;;;;;;16.08;8.20;;;;;;;;;;5073813;28;20048;-62
2021/04/27 08:09:07;;;;;;;13.80;7.03;;;;;;;;;;5073792;28;20487;-64
2021/04/27 08:11:37;;;;;;;11.32;7.22;;;;;;;;;;5072737;28;20049;-62
2021/04/27 08:14:05;;;;;;;14.75;6.50;;;;;;;;;;5072179;28;20131;-61
2021/04/27 08:16:34;;;;;;;16.90;7.70;;;;;;;;;;5070316;28;20056;-62
2021/04/27 08:19:03;;;;;;;10.70;6.93;;;;;;;;;;5069616;28;20102;-61
2021/04/27 08:21:33;;;;;;;12.90;7.68;;;;;;;;;;5071428;28;20044;-61
2021/04/27 08:24:01;;;;;;;22.35;7.53;;;;;;;;;;5070418;28;20083;-62
2021/04/27 08:26:49;;;;;;;14.23;7.47;;;;;;;;;;5070906;28;20052;-62
2021/04/27 08:29:17;;;;;;;17.83;7.47;;;;;;;;;;5069243;28;20043;-61
2021/04/27 08:31:58;;;;;;;11.77;7.10;;;;;;;;;;5070384;28;20047;-61
2021/04/27 08:34:26;;;;;;;10.13;6.82;;;;;;;;;;5070026;28;20118;-61
2021/04/27 08:36:55;;;;;;;10.70;6.80;;;;;;;;;;5071910;28;20544;-60
2021/04/27 08:39:24;;;;;;;13.82;7.43;;;;;;;;;;5067542;28;20510;-61
2021/04/27 08:41:52;;;;;;;11.48;7.55;;;;;;;;;;5071290;28;20056;-61
2021/04/27 08:44:20;;;;;;;10.40;7.03;;;;;;;;;;5066774;28;20056;-62
2021/04/27 08:46:50;;;;;;;12.15;7.25;;;;;;;;;;5069341;28;20091;-61
2021/04/27 08:49:22;;;;;;;14.82;8.27;;;;;;;;;;5070329;28;20069;-61
2021/04/27 08:51:51;;;;;;;12.38;7.80;;;;;;;;;;5068202;28;20057;-61
2021/04/27 08:54:31;;;;;;;10.55;6.45;;;;;;;;;;5070891;28;20053;-61
2021/04/27 08:56:59;;;;;;;14.25;7.10;;;;;;;;;;5068010;28;20044;-61
2021/04/27 08:59:27;;;;;;;14.07;7.45;;;;;;;;;;5072588;28;20056;-61
2021/04/27 09:01:55;;;;;;;11.10;6.88;;;;;;;;;;5071924;28;20051;-61
2021/04/27 09:04:41;;;;;;;11.88;7.85;;;;;;;;;;5068192;28;20048;-61
2021/04/27 09:07:10;;;;;;;10.60;6.70;;;;;;;;;;5062387;28;20404;-61
2021/04/27 09:09:40;;;;;;;13.25;7.18;;;;;;;;;;5072586;28;20125;-61
2021/04/27 09:12:08;;;;;;;12.50;8.50;;;;;;;;;;5070023;28;20049;-61
2021/04/27 09:14:37;;;;;;;11.98;7.25;;;;;;;;;;5074648;28;20036;-61
2021/04/27 09:17:06;;;;;;;10.82;7.40;;;;;;;;;;5069609;28;20044;-61
2021/04/27 09:19:38;;;;;;;14.32;7.18;;;;;;;;;;5072794;28;20110;-61
2021/04/27 09:22:09;;;;;;;13.43;7.72;;;;;;;;;;5076261;28;20053;-61
2021/04/27 09:24:41;;;;;;;11.50;7.70;;;;;;;;;;5071069;28;20051;-61
2021/04/27 09:27:10;;;;;;;12.43;7.40;;;;;;;;;;5070343;28;20557;-61
2021/04/27 09:29:39;;;;;;;11.48;7.05;;;;;;;;;;5072966;28;20060;-60
2021/04/27 09:32:08;;;;;;;11.25;7.32;;;;;;;;;;5068695;28;20069;-60
2021/04/27 09:34:36;;;;;;;13.07;8.23;;;;;;;;;;5068729;28;20436;-60
2021/04/27 09:37:05;;;;;;;15.52;7.50;;;;;;;;;;5067522;28;20550;-61
2021/04/27 09:39:36;;;;;;;13.40;7.82;;;;;;;;;;5072913;28;20036;-60
2021/04/27 09:42:06;;;;;;;18.00;7.60;;;;;;;;;;5072565;28;20094;-60
2021/04/27 09:44:35;;;;;;;11.82;7.38;;;;;;;;;;5069643;28;20186;-61
2021/04/27 09:47:17;;;;;;;16.15;8.02;;;;;;;;;;5071596;28;20532;-61
2021/04/27 09:49:59;;;;;;;15.70;8.15;;;;;;;;;;5067233;28;20484;-59
2021/04/27 09:52:32;;;;;;;10.98;7.82;;;;;;;;;;5072313;28;20048;-60
2021/04/27 09:55:07;;;;;;;12.05;6.93;;;;;;;;;;5068952;28;20056;-61
2021/04/27 09:57:37;;;;;;;9.43;7.25;;;;;;;;;;5073360;28;20064;-61
2021/04/27 10:00:23;;;;;;;12.60;7.45;;;;;;;;;;5070098;28;20064;-61
2021/04/27 10:02:51;;;;;;;12.18;7.25;;;;;;;;;;5063572;28;20048;-61
2021/04/27 10:05:21;;;;;;;17.27;8.45;;;;;;;;;;5071001;28;20083;-61
2021/04/27 10:07:48;;;;;;;12.60;7.90;;;;;;;;;;5067519;28;20095;-61
2021/04/27 10:10:18;;;;;;;13.23;6.90;;;;;;;;;;5071236;28;20084;-61
2021/04/27 10:12:50;;;;;;;16.00;8.30;;;;;;;;;;5071853;28;20183;-60
2021/04/27 10:15:18;;;;;;;11.48;7.18;;;;;;;;;;5064242;28;20048;-61
2021/04/27 10:17:46;;;;;;;15.45;7.57;;;;;;;;;;5071716;28;20055;-61
2021/04/27 10:20:15;;;;;;;11.95;8.18;;;;;;;;;;5069213;28;20044;-61
2021/04/27 10:22:52;;;;;;;13.85;8.07;;;;;;;;;;5070750;28;20059;-62
2021/04/27 10:25:24;;;;;;;15.75;6.82;;;;;;;;;;5068883;28;20143;-61
2021/04/27 10:27:55;;;;;;;12.27;7.20;;;;;;;;;;5064184;28;20431;-61
2021/04/27 10:30:42;;;;;;;13.35;7.70;;;;;;;;;;5068959;28;20053;-61
2021/04/27 10:33:17;;;;;;;13.35;7.53;;;;;;;;;;5069414;28;20048;-61
2021/04/27 10:36:01;;;;;;;11.23;8.18;;;;;;;;;;5061487;28;20044;-61
2021/04/27 10:38:45;;;;;;;13.20;6.88;;;;;;;;;;5069208;28;20535;-61
2021/04/27 10:41:15;;;;;;;11.95;7.25;;;;;;;;;;5069419;28;20163;-62
2021/04/27 10:43:56;;;;;;;11.32;7.40;;;;;;;;;;5068776;28;20528;-62
2021/04/27 10:46:53;;;;;;;13.80;8.13;;;;;;;;;;5064636;28;20052;-62
2021/04/27 10:49:29;;;;;;;13.25;9.13;;;;;;;;;;5052648;28;20063;-61
2021/04/27 10:51:58;;;;;;;15.18;8.32;;;;;;;;;;5062640;28;20037;-61
2021/04/27 10:54:29;;;;;;;14.93;7.95;;;;;;;;;;5069088;28;20131;-61
2021/04/27 10:57:14;;;;;;;11.00;7.33;;;;;;;;;;5066610;28;20491;-61
2021/04/27 10:59:56;;;;;;;16.08;8.40;;;;;;;;;;5068930;28;20045;-61
2021/04/27 11:02:27;;;;;;;14.30;8.50;;;;;;;;;;5069014;28;20467;-61
2021/04/27 11:04:58;;;;;;;13.57;7.53;;;;;;;;;;5068402;28;20067;-60
2021/04/27 11:07:33;;;;;;;13.05;8.60;;;;;;;;;;5063018;28;20056;-62
2021/04/27 11:10:22;;;;;;;12.32;7.80;;;;;;;;;;5070515;28;20048;-61
2021/04/27 11:13:09;;;;;;;12.23;8.05;;;;;;;;;;5070167;28;20049;-61
2021/04/27 11:15:37;;;;;;;16.25;8.18;;;;;;;;;;5069230;28;20502;-61
2021/04/27 11:18:08;;;;;;;12.45;7.63;;;;;;;;;;5067672;28;20045;-60
2021/04/27 11:20:44;;;;;;;13.55;9.18;;;;;;;;;;5050598;28;20053;-62
2021/04/27 11:23:27;;;;;;;11.20;7.13;;;;;;;;;;5066432;28;20098;-61
2021/04/27 11:25:55;;;;;;;13.52;8.52;;;;;;;;;;5073105;28;20499;-61
2021/04/27 11:28:51;;;;;;;16.02;8.15;;;;;;;;;;5065339;28;20052;-61
2021/04/27 11:31:19;;;;;;;;;;;;;;;;;;5064846;28;20102;-61
2021/04/27 11:33:55;;;;;;;13.57;8.23;;;;;;;;;;5068037;28;19924;-61
2021/04/27 11:36:35;;;;;;;14.68;9.30;;;;;;;;;;5072845;28;20040;-62
2021/04/27 11:39:10;;;;;;;13.57;7.97;;;;;;;;;;5061248;28;20133;-61
2021/04/27 11:41:38;;;;;;;;;;;;;;;;;;5071271;28;20037;-61
2021/04/27 11:44:07;;;;;;;16.30;9.13;;;;;;;;;;5072488;28;20172;-61
2021/04/27 11:46:50;;;;;;;15.20;8.45;;;;;;;;;;5073181;28;20051;-61
2021/04/27 11:49:18;;;;;;;13.93;8.32;;;;;;;;;;5055951;28;20459;-61
2021/04/27 11:51:46;;;;;;;14.60;8.43;;;;;;;;;;5071988;28;20048;-61
2021/04/27 11:54:14;;;;;;;14.55;8.75;;;;;;;;;;5067808;28;20053;-61
2021/04/27 11:56:48;;;;;;;12.10;8.68;;;;;;;;;;5064065;28;20446;-61
2021/04/27 11:59:20;;;;;;;12.80;8.10;;;;;;;;;;5069790;28;20450;-61
2021/04/27 12:01:48;;;;;;;15.05;9.48;;;;;;;;;;5064992;28;20434;-61
2021/04/27 12:04:34;;;;;;;11.70;8.44;;;;;;;;;;2987502;28;10003101;-61
2021/04/27 12:07:02;;;;;;;14.55;8.82;;;;;;;;;;2955423;28;10001865;-61
2021/04/27 12:09:40;;;;;;;16.25;8.82;;;;;;;;;;5041739;28;20050;-60
2021/04/27 12:12:09;;;;;;;14.48;8.10;;;;;;;;;;5049211;28;20077;-61
2021/04/27 12:14:38;;;;;;;13.15;9.02;;;;;;;;;;5045732;28;20044;-61
2021/04/27 12:17:06;;;;;;;12.27;8.32;;;;;;;;;;5052785;28;20401;-61
2021/04/27 12:19:35;;;;;;;14.05;8.48;;;;;;;;;;5052898;28;20059;-62
2021/04/27 12:22:05;;;;;;;11.68;8.77;;;;;;;;;;5049252;28;20045;-62
2021/04/27 12:24:35;;;;;;;14.30;9.18;;;;;;;;;;5049489;28;20053;-61
2021/04/27 12:27:05;;;;;;;14.82;9.40;;;;;;;;;;5052241;28;20103;-61
2021/04/27 12:29:34;;;;;;;12.65;8.70;;;;;;;;;;5052934;28;20048;-60
2021/04/27 12:32:08;;;;;;;15.60;8.52;;;;;;;;;;5052332;28;20477;-61
2021/04/27 12:34:37;;;;;;;12.20;8.23;;;;;;;;;;5047760;28;20300;-62
2021/04/27 12:37:05;;;;;;;14.98;8.88;;;;;;;;;;5051906;28;20045;-61
2021/04/27 12:39:34;;;;;;;14.60;8.38;;;;;;;;;;5049280;28;20397;-61
2021/04/27 12:42:03;;;;;;;13.63;7.97;;;;;;;;;;5049518;28;20037;-61
2021/04/27 12:44:35;;;;;;;13.32;8.52;;;;;;;;;;5049529;28;20256;-60
2021/04/27 12:47:06;;;;;;;12.25;8.13;;;;;;;;;;5047692;28;20172;-62
2021/04/27 12:49:36;;;;;;;11.98;8.50;;;;;;;;;;5051773;28;20049;-62
2021/04/27 12:52:07;;;;;;;11.88;8.20;;;;;;;;;;5050720;28;20172;-61
2021/04/27 12:54:36;;;;;;;10.85;7.45;;;;;;;;;;5047535;28;20092;-61
2021/04/27 12:57:06;;;;;;;10.80;7.55;;;;;;;;;;5051085;28;20098;-61
2021/04/27 12:59:37;;;;;;;14.98;8.65;;;;;;;;;;5047465;28;20049;-60
2021/04/27 13:02:09;;;;;;;11.90;8.73;;;;;;;;;;5050876;28;20393;-61
2021/04/27 13:04:43;;;;;;;12.50;7.65;;;;;;;;;;5059659;28;20164;-61
2021/04/27 13:07:21;;;;;;;14.77;8.48;;;;;;;;;;5068515;28;20094;-61
2021/04/27 13:09:50;;;;;;;16.52;7.95;;;;;;;;;;5070777;28;20056;-60
2021/04/27 13:12:18;;;;;;;17.35;8.82;;;;;;;;;;5071188;28;20036;-60
2021/04/27 13:14:48;;;;;;;15.13;8.63;;;;;;;;;;5069351;28;20106;-61
2021/04/27 13:17:27;;;;;;;10.75;7.35;;;;;;;;;;5064777;28;20555;-61
2021/04/27 13:19:59;;;;;;;14.25;7.95;;;;;;;;;;5072447;28;20052;-61
2021/04/27 13:22:33;;;;;;;14.70;8.63;;;;;;;;;;5069742;28;20052;-61
2021/04/27 13:25:13;;;;;;;11.50;7.50;;;;;;;;;;5062204;28;20400;-61
2021/04/27 13:27:47;;;;;;;11.38;7.20;;;;;;;;;;5069586;28;20500;-60
2021/04/27 13:30:16;;;;;;;11.70;7.38;;;;;;;;;;5065999;28;20053;-60
2021/04/27 13:32:51;;;;;;;12.30;7.47;;;;;;;;;;5071408;28;20052;-61
2021/04/27 13:35:25;;;;;;;14.27;7.63;;;;;;;;;;5067915;28;20403;-61
2021/04/27 13:37:53;;;;;;;11.43;7.15;;;;;;;;;;5070212;28;20049;-61
2021/04/27 13:40:21;;;;;;;9.98;7.07;;;;;;;;;;5067617;28;20048;-61
2021/04/27 13:42:50;;;;;;;10.55;6.90;;;;;;;;;;5068990;28;20045;-61
2021/04/27 13:45:19;;;;;;;11.15;7.10;;;;;;;;;;5069789;28;20044;-62
2021/04/27 13:47:48;;;;;;;12.18;7.22;;;;;;;;;;5069898;28;20492;-61
2021/04/27 13:50:17;;;;;;;11.98;7.60;;;;;;;;;;5070827;28;20044;-61
2021/04/27 13:52:45;;;;;;;14.07;7.18;;;;;;;;;;5070561;28;20406;-61
2021/04/27 13:55:13;;;;;;;14.73;8.32;;;;;;;;;;5070006;28;20060;-61
2021/04/27 13:57:42;;;;;;;11.95;7.85;;;;;;;;;;5064206;28;20127;-61
2021/04/27 14:00:12;;;;;;;13.57;9.20;;;;;;;;;;5070149;28;20131;-61
2021/04/27 14:02:40;;;;;;;15.18;8.50;;;;;;;;;;5071812;28;20448;-61
2021/04/27 14:05:09;;;;;;;11.90;7.78;;;;;;;;;;5069472;28;20049;-61
2021/04/27 14:07:38;;;;;;;11.57;7.57;;;;;;;;;;5069125;28;20377;-60
2021/04/27 14:10:08;;;;;;;10.52;7.18;;;;;;;;;;5069386;28;20106;-61
2021/04/27 14:12:36;;;;;;;11.48;7.38;;;;;;;;;;5066021;28;20049;-61
2021/04/27 14:15:05;;;;;;;14.20;7.68;;;;;;;;;;5069931;28;20048;-62
2021/04/27 14:17:34;;;;;;;11.77;7.00;;;;;;;;;;5068162;28;20040;-60
2021/04/27 14:20:02;;;;;;;11.18;6.55;;;;;;;;;;5063769;28;20045;-61
2021/04/27 14:22:30;;;;;;;12.82;7.40;;;;;;;;;;5066993;28;20484;-61
2021/04/27 14:24:58;;;;;;;11.98;7.78;;;;;;;;;;5070112;28;20049;-62
2021/04/27 14:27:27;;;;;;;11.90;6.85;;;;;;;;;;5068743;28;20436;-61
2021/04/27 14:29:55;;;;;;;11.63;7.43;;;;;;;;;;5067471;28;20057;-62
2021/04/27 14:32:23;;;;;;;12.27;6.28;;;;;;;;;;5063273;28;20044;-60
2021/04/27 14:34:51;;;;;;;12.90;6.60;;;;;;;;;;5056777;28;20098;-61
2021/04/27 14:37:19;;;;;;;12.85;7.28;;;;;;;;;;5067179;28;20052;-60
2021/04/27 14:39:47;;;;;;;11.80;7.00;;;;;;;;;;5068289;28;20059;-60
2021/04/27 14:42:15;;;;;;;15.57;7.80;;;;;;;;;;5068841;28;20106;-61
2021/04/27 14:44:44;;;;;;;14.90;8.10;;;;;;;;;;5067490;28;20051;-61
2021/04/27 14:47:12;;;;;;;10.65;7.38;;;;;;;;;;5066520;28;20131;-61
2021/04/27 14:49:40;;;;;;;12.05;7.13;;;;;;;;;;5067849;28;20087;-61
2021/04/27 14:52:08;;;;;;;12.00;7.68;;;;;;;;;;5070251;28;20071;-61